Time;durP1;ratioP1;P1;durP2;ratioP2;P2;SDS_P1;SDS_P2;PMS_P1;PMS_P2;Temp;Humidity;BMP_temperature;BMP_pressure;BME280_temperature;BME280_humidity;BME280_pressure;Samples;Min_cycle;Max_cycle;Signal;HPM_P1;HPM_P2
2021/10/06 00:01:51;;;;;;;2.10;1.80;;;14.10;99.90;;;;;;9878972;30;20210;-83
2021/10/06 00:06:55;;;;;;;1.70;1.60;;;14.10;99.90;;;;;;9893172;30;20604;-83
2021/10/06 00:11:57;;;;;;;2.57;1.63;;;14.10;99.90;;;;;;9893045;30;20293;-83
2021/10/06 00:16:59;;;;;;;2.03;1.47;;;14.10;99.90;;;;;;9893496;30;20227;-83
2021/10/06 00:22:04;;;;;;;2.63;1.90;;;14.10;99.90;;;;;;9879141;30;20225;-83
2021/10/06 00:27:06;;;;;;;2.00;1.80;;;14.20;99.90;;;;;;9862483;30;20250;-83
2021/10/06 00:32:08;;;;;;;2.43;1.90;;;14.20;99.90;;;;;;9841710;30;20265;-83
2021/10/06 00:37:12;;;;;;;2.07;1.63;;;14.20;99.90;;;;;;9856884;30;20231;-82
2021/10/06 00:42:14;;;;;;;2.17;1.80;;;14.20;99.90;;;;;;9844227;30;20310;-81
2021/10/06 00:47:17;;;;;;;2.90;2.00;;;14.20;99.90;;;;;;9858424;30;20306;-83
2021/10/06 00:52:21;;;;;;;2.03;1.80;;;14.20;99.90;;;;;;9840103;30;20580;-82
2021/10/06 00:57:23;;;;;;;6.33;1.80;;;14.10;99.90;;;;;;9870634;30;20766;-81
2021/10/06 01:02:25;;;;;;;2.03;1.80;;;14.10;99.90;;;;;;9870543;30;20215;-81
2021/10/06 01:07:31;;;;;;;3.80;1.50;;;14.00;99.90;;;;;;9874128;30;20621;-81
2021/10/06 01:12:33;;;;;;;2.80;1.80;;;14.00;99.90;;;;;;9891011;30;20217;-81
2021/10/06 01:17:36;;;;;;;1.80;1.70;;;13.90;99.90;;;;;;9889963;30;20314;-82
2021/10/06 01:22:40;;;;;;;2.00;1.90;;;13.90;99.90;;;;;;9875239;30;20235;-82
2021/10/06 01:27:43;;;;;;;3.53;2.10;;;13.80;99.90;;;;;;9875307;30;20242;-82
2021/10/06 01:32:46;;;;;;;2.53;2.33;;;13.80;99.90;;;;;;9877179;30;20242;-82
2021/10/06 01:37:50;;;;;;;2.20;2.00;;;13.80;99.90;;;;;;9880943;29;20230;-82
2021/10/06 01:42:54;;;;;;;2.10;2.00;;;13.80;99.90;;;;;;9884069;30;20215;-82
2021/10/06 01:48:05;;;;;;;3.10;2.00;;;13.70;99.90;;;;;;9882874;30;20246;-83
2021/10/06 01:53:09;;;;;;;2.30;2.10;;;13.70;99.90;;;;;;9882718;30;20749;-83
2021/10/06 01:58:14;;;;;;;2.93;2.27;;;13.60;99.90;;;;;;9873843;30;20239;-83
2021/10/06 02:03:16;;;;;;;2.73;2.40;;;13.60;99.90;;;;;;9874931;30;20669;-82
2021/10/06 02:08:30;;;;;;;4.00;2.53;;;13.50;99.90;;;;;;9873765;30;20231;-82
2021/10/06 02:13:38;;;;;;;4.60;2.60;;;13.50;99.90;;;;;;9844035;30;20251;-83
2021/10/06 02:18:40;;;;;;;2.37;2.23;;;13.40;99.90;;;;;;9872171;30;20207;-82
2021/10/06 02:23:53;;;;;;;3.20;2.53;;;13.30;99.90;;;;;;9856952;30;20367;-81
2021/10/06 02:28:55;;;;;;;4.13;2.27;;;13.30;99.90;;;;;;9900594;30;20321;-82
2021/10/06 02:33:57;;;;;;;2.37;2.17;;;13.20;99.90;;;;;;9893260;29;20658;-81
2021/10/06 02:39:01;;;;;;;5.07;2.10;;;13.20;99.90;;;;;;9895439;30;20203;-82
2021/10/06 02:44:04;;;;;;;2.80;2.60;;;13.20;99.90;;;;;;9879759;29;20601;-82
2021/10/06 02:49:06;;;;;;;5.43;2.40;;;13.10;99.90;;;;;;9879778;29;20264;-82
2021/10/06 02:54:10;;;;;;;3.03;2.57;;;13.10;99.90;;;;;;9879902;29;20226;-83
2021/10/06 02:59:12;;;;;;;2.97;2.10;;;13.00;99.90;;;;;;9849790;30;20215;-82
2021/10/06 03:04:14;;;;;;;3.63;2.60;;;13.00;99.90;;;;;;9841720;30;20252;-82
2021/10/06 03:09:17;;;;;;;1.93;1.80;;;13.00;99.90;;;;;;9858052;30;20214;-83
2021/10/06 03:14:19;;;;;;;2.67;2.50;;;13.00;99.90;;;;;;9842771;30;20231;-81
2021/10/06 03:19:22;;;;;;;2.97;2.60;;;13.00;99.90;;;;;;9842916;30;20215;-81
2021/10/06 03:24:25;;;;;;;1.93;1.83;;;13.00;99.90;;;;;;9842904;30;20746;-82
2021/10/06 03:29:28;;;;;;;2.70;2.57;;;13.00;99.90;;;;;;9868719;30;20246;-83
2021/10/06 03:34:30;;;;;;;2.43;2.33;;;13.00;99.90;;;;;;9843247;30;20301;-81
2021/10/06 03:39:34;;;;;;;2.60;2.40;;;13.00;99.90;;;;;;9844417;30;20222;-82
2021/10/06 03:44:37;;;;;;;2.73;2.53;;;13.10;99.90;;;;;;9858005;30;20223;-83
2021/10/06 03:49:39;;;;;;;4.57;2.90;;;13.10;99.90;;;;;;9858554;30;20298;-83
2021/10/06 03:54:43;;;;;;;4.90;3.53;;;13.20;99.90;;;;;;9858262;30;20262;-83
2021/10/06 03:59:45;;;;;;;3.70;2.50;;;13.20;99.90;;;;;;9876326;30;20222;-82
2021/10/06 04:04:47;;;;;;;2.60;1.60;;;13.20;99.90;;;;;;9903821;29;20231;-81
2021/10/06 04:09:50;;;;;;;2.33;1.43;;;13.30;99.90;;;;;;9912399;30;20210;-82
2021/10/06 04:14:53;;;;;;;3.57;2.20;;;13.30;99.90;;;;;;9892957;29;20669;-83
2021/10/06 04:19:55;;;;;;;2.30;2.20;;;13.30;99.90;;;;;;9891910;30;20338;-83
2021/10/06 04:24:58;;;;;;;4.10;2.50;;;13.30;99.90;;;;;;9910324;29;20228;-83
2021/10/06 04:30:02;;;;;;;4.03;2.40;;;13.30;99.90;;;;;;9892289;30;20237;-81
2021/10/06 04:35:04;;;;;;;2.63;2.00;;;13.30;99.90;;;;;;9908863;29;20764;-82
2021/10/06 04:40:10;;;;;;;4.00;2.20;;;13.30;99.90;;;;;;9910765;30;20210;-82
2021/10/06 04:45:13;;;;;;;2.67;2.47;;;13.30;99.90;;;;;;9896088;29;20253;-81
2021/10/06 04:50:15;;;;;;;2.83;2.63;;;13.30;99.90;;;;;;9882984;30;20217;-81
2021/10/06 04:55:19;;;;;;;3.10;2.90;;;13.30;99.90;;;;;;9898670;29;20301;-81
2021/10/06 05:00:32;;;;;;;2.30;2.20;;;13.40;99.90;;;;;;9895367;30;20607;-81
2021/10/06 05:05:34;;;;;;;2.40;1.80;;;13.40;99.90;;;;;;9895246;29;20230;-82
2021/10/06 05:10:37;;;;;;;2.00;1.90;;;13.30;99.90;;;;;;9898439;29;20566;-82
2021/10/06 05:15:49;;;;;;;2.00;1.90;;;13.30;99.90;;;;;;9904392;29;20608;-82
2021/10/06 05:20:52;;;;;;;2.23;2.03;;;13.20;99.90;;;;;;9888458;30;20326;-83
2021/10/06 05:25:55;;;;;;;2.27;1.80;;;13.20;99.90;;;;;;9903139;29;20310;-82
2021/10/06 05:30:57;;;;;;;2.30;2.07;;;13.20;99.90;;;;;;9919493;30;20206;-81
2021/10/06 05:36:05;;;;;;;2.20;2.10;;;13.20;99.90;;;;;;9887406;29;20245;-82
2021/10/06 05:41:42;;;;;;;2.83;2.00;;;13.30;99.90;;;;;;9920577;30;20211;-82
2021/10/06 05:47:14;;;;;;;1.70;1.60;;;13.30;99.90;;;;;;9901292;30;20300;-82
2021/10/06 05:52:16;;;;;;;2.53;2.33;;;13.30;99.90;;;;;;9901176;30;20599;-83
2021/10/06 05:57:34;;;;;;;2.37;2.17;;;13.40;99.90;;;;;;9884480;30;20304;-83
2021/10/06 06:02:44;;;;;;;3.73;2.00;;;13.40;99.90;;;;;;9885226;30;20268;-82
2021/10/06 06:08:08;;;;;;;2.30;2.10;;;13.50;99.90;;;;;;9886687;30;20309;-83
2021/10/06 06:20:29;;;;;;;2.07;1.83;;;13.60;99.90;;;;;;9864242;30;20519;-83
2021/10/06 06:25:31;;;;;;;2.50;2.30;;;13.50;99.90;;;;;;9883976;29;20649;-83
2021/10/06 06:30:34;;;;;;;3.10;2.40;;;13.50;99.90;;;;;;9884999;30;20226;-83
2021/10/06 06:35:37;;;;;;;2.20;2.10;;;13.50;99.90;;;;;;9886470;29;20715;-83
2021/10/06 06:40:41;;;;;;;2.73;1.93;;;13.40;99.90;;;;;;9887704;30;20306;-83
2021/10/06 06:45:43;;;;;;;2.43;2.23;;;13.40;99.90;;;;;;9899051;29;20219;-82
2021/10/06 06:50:52;;;;;;;2.83;2.37;;;13.40;99.90;;;;;;9901238;30;20219;-83
2021/10/06 06:55:55;;;;;;;4.27;2.47;;;13.40;99.90;;;;;;9885614;29;20230;-82
2021/10/06 07:00:58;;;;;;;2.30;2.13;;;13.40;99.90;;;;;;9887046;30;20691;-82
2021/10/06 07:06:01;;;;;;;2.50;2.20;;;13.40;99.90;;;;;;9880313;29;20592;-82
2021/10/06 07:11:03;;;;;;;3.40;2.40;;;13.50;99.90;;;;;;9879512;30;20691;-82
2021/10/06 07:16:06;;;;;;;3.70;2.30;;;13.50;99.90;;;;;;9878686;29;20599;-82
2021/10/06 07:21:09;;;;;;;4.97;2.60;;;13.60;99.90;;;;;;9877694;30;20298;-82
2021/10/06 07:26:12;;;;;;;3.00;2.47;;;13.60;99.90;;;;;;9877889;29;20252;-82
2021/10/06 07:31:14;;;;;;;5.63;2.53;;;13.60;99.90;;;;;;9895408;30;20706;-83
2021/10/06 07:36:18;;;;;;;2.10;1.80;;;13.70;99.90;;;;;;9895064;29;20232;-82
2021/10/06 07:41:21;;;;;;;2.30;2.10;;;13.70;99.90;;;;;;9893022;30;20244;-82
2021/10/06 07:46:23;;;;;;;2.50;2.20;;;13.70;99.90;;;;;;9898425;30;20242;-82
2021/10/06 07:58:08;;;;;;;2.20;2.00;;;14.10;99.90;;;;;;9888680;30;20302;-82
2021/10/06 08:03:16;;;;;;;2.87;2.27;;;14.40;99.90;;;;;;9883015;30;20221;-82
2021/10/06 08:08:19;;;;;;;2.10;1.67;;;14.60;99.90;;;;;;9883278;30;20258;-82
2021/10/06 08:13:24;;;;;;;2.80;2.00;;;14.70;99.90;;;;;;9882404;29;20244;-82
2021/10/06 08:18:28;;;;;;;3.47;2.20;;;14.80;99.90;;;;;;9881565;30;20409;-83
2021/10/06 08:23:31;;;;;;;1.80;1.70;;;14.90;99.90;;;;;;9879229;29;20210;-83
2021/10/06 08:28:34;;;;;;;2.63;1.50;;;15.10;99.90;;;;;;9894237;30;20238;-82
2021/10/06 08:33:36;;;;;;;6.40;1.70;;;15.30;99.90;;;;;;9910891;29;20209;-82
2021/10/06 08:38:39;;;;;;;3.23;2.30;;;15.40;99.90;;;;;;9913315;30;20684;-83
2021/10/06 08:44:04;;;;;;;1.90;1.80;;;15.50;99.90;;;;;;9882998;29;20755;-83
2021/10/06 08:49:07;;;;;;;2.30;1.90;;;15.40;99.90;;;;;;9881570;30;20240;-82
2021/10/06 08:54:10;;;;;;;3.53;1.93;;;15.30;99.90;;;;;;9923115;29;20256;-83
2021/10/06 08:59:13;;;;;;;3.07;1.90;;;15.30;99.90;;;;;;9889753;30;20219;-82
2021/10/06 09:04:32;;;;;;;2.43;1.67;;;15.20;99.90;;;;;;9899478;29;20659;-82
2021/10/06 09:09:35;;;;;;;4.10;1.90;;;15.20;99.90;;;;;;9886320;30;20619;-82
2021/10/06 09:14:43;;;;;;;2.90;2.00;;;15.10;99.90;;;;;;9901848;29;20222;-82
2021/10/06 09:19:46;;;;;;;4.07;2.00;;;15.10;99.90;;;;;;9904088;30;20564;-82
2021/10/06 09:25:02;;;;;;;2.90;2.00;;;15.20;99.90;;;;;;9885581;29;20237;-82
2021/10/06 09:30:09;;;;;;;2.13;1.70;;;15.40;99.90;;;;;;9886795;30;20230;-83
2021/10/06 09:35:13;;;;;;;2.33;1.90;;;15.50;99.90;;;;;;9887559;29;20334;-83
2021/10/06 09:40:21;;;;;;;2.90;1.87;;;15.60;99.90;;;;;;9902241;30;20657;-83
2021/10/06 09:45:28;;;;;;;3.13;1.70;;;15.80;99.90;;;;;;9886802;29;20230;-83
2021/10/06 09:50:30;;;;;;;2.33;1.50;;;16.10;99.90;;;;;;9884530;30;20214;-83
2021/10/06 09:55:34;;;;;;;3.37;1.80;;;16.30;99.90;;;;;;9886848;29;20246;-83
2021/10/06 10:00:38;;;;;;;2.67;1.80;;;16.40;99.90;;;;;;9878624;30;20744;-84
2021/10/06 10:05:40;;;;;;;2.40;1.97;;;16.60;99.90;;;;;;9859533;30;20230;-82
2021/10/06 10:10:43;;;;;;;5.70;1.97;;;16.70;99.90;;;;;;9876491;30;20273;-82
2021/10/06 10:15:47;;;;;;;3.63;1.60;;;16.70;99.90;;;;;;9860393;30;20262;-85
2021/10/06 10:20:51;;;;;;;2.50;1.80;;;16.60;99.90;;;;;;9875326;30;20203;-84
2021/10/06 10:25:55;;;;;;;2.50;2.17;;;16.30;99.90;;;;;;9881734;30;22599;-84
2021/10/06 10:31:01;;;;;;;2.93;2.70;;;15.90;99.90;;;;;;9880989;30;20207;-84
2021/10/06 10:36:03;;;;;;;4.13;2.10;;;15.70;99.90;;;;;;9896500;24;20270;-82
2021/10/06 10:41:05;;;;;;;3.60;2.57;;;15.60;99.90;;;;;;9917704;30;20209;-83
2021/10/06 10:46:11;;;;;;;2.50;2.20;;;15.60;99.90;;;;;;9906546;29;20227;-83
2021/10/06 10:51:14;;;;;;;4.17;2.63;;;15.70;99.90;;;;;;9916504;30;20207;-83
2021/10/06 10:56:25;;;;;;;4.83;2.40;;;15.90;99.90;;;;;;9898760;29;20227;-82
2021/10/06 11:01:43;;;;;;;4.63;2.03;;;16.00;99.90;;;;;;9913541;30;20635;-82
2021/10/06 11:06:47;;;;;;;2.17;1.63;;;15.80;99.90;;;;;;9895846;30;20280;-82
2021/10/06 11:11:49;;;;;;;1.60;1.50;;;15.60;99.90;;;;;;9895554;30;20215;-82
2021/10/06 11:17:07;;;;;;;2.40;1.93;;;15.70;99.90;;;;;;9898968;30;20230;-82
2021/10/06 11:22:41;;;;;;;3.30;2.10;;;15.80;99.90;;;;;;9896321;30;20210;-82
2021/10/06 11:27:47;;;;;;;3.10;2.20;;;16.00;99.90;;;;;;9911284;29;20249;-82
2021/10/06 11:32:53;;;;;;;3.17;2.30;;;16.20;99.90;;;;;;9911351;30;20218;-82
2021/10/06 11:38:08;;;;;;;2.20;2.00;;;16.20;99.90;;;;;;9911567;29;20226;-82
2021/10/06 11:43:10;;;;;;;3.53;2.50;;;16.10;99.90;;;;;;9895062;30;20537;-82
2021/10/06 11:48:14;;;;;;;5.43;2.57;;;16.00;99.90;;;;;;9895686;30;20261;-82
2021/10/06 11:53:18;;;;;;;4.93;1.93;;;16.00;99.90;;;;;;9899392;30;20202;-82
2021/10/06 11:58:33;;;;;;;4.03;2.00;;;15.90;99.90;;;;;;9896638;30;20227;-82
2021/10/06 12:03:41;;;;;;;2.50;2.00;;;15.90;99.90;;;;;;9882732;30;20211;-82
2021/10/06 12:09:19;;;;;;;2.10;2.00;;;15.80;99.90;;;;;;9913919;30;20214;-82
2021/10/06 12:14:46;;;;;;;1.80;1.70;;;15.70;99.90;;;;;;9898075;29;20249;-80
2021/10/06 12:19:59;;;;;;;2.50;1.70;;;15.80;99.90;;;;;;9915638;30;20245;-80
2021/10/06 12:25:01;;;;;;;2.17;1.70;;;16.00;99.90;;;;;;9923061;29;20688;-80
2021/10/06 12:30:10;;;;;;;2.40;2.03;;;16.10;99.90;;;;;;9910980;30;20734;-80
2021/10/06 12:35:16;;;;;;;3.17;2.10;;;15.90;99.90;;;;;;9895380;29;20261;-80
2021/10/06 12:40:36;;;;;;;1.63;1.53;;;15.70;99.90;;;;;;9909413;30;20207;-82
2021/10/06 12:45:59;;;;;;;2.70;2.10;;;15.40;99.90;;;;;;9910118;29;20257;-82
2021/10/06 12:51:02;;;;;;;1.90;1.70;;;15.40;99.90;;;;;;9908560;30;20312;-82
2021/10/06 12:56:05;;;;;;;2.17;1.70;;;15.30;99.90;;;;;;9909923;29;20244;-82
2021/10/06 13:01:07;;;;;;;2.37;2.00;;;15.10;99.90;;;;;;9906173;30;20199;-81
2021/10/06 13:06:10;;;;;;;2.10;2.00;;;15.00;99.90;;;;;;9906208;29;20226;-82
2021/10/06 13:11:12;;;;;;;2.50;1.93;;;15.00;99.90;;;;;;9910269;30;20238;-81
2021/10/06 13:16:15;;;;;;;3.63;1.97;;;15.00;99.90;;;;;;9908770;29;20234;-82
2021/10/06 13:21:19;;;;;;;4.17;2.03;;;15.20;99.90;;;;;;9912791;30;20203;-83
2021/10/06 13:26:24;;;;;;;2.33;1.90;;;15.40;99.90;;;;;;9895427;29;20230;-82
2021/10/06 13:31:32;;;;;;;2.17;1.80;;;15.60;99.90;;;;;;9895982;29;20206;-82
2021/10/06 13:36:35;;;;;;;2.80;2.20;;;15.70;99.90;;;;;;9918520;29;20226;-82
2021/10/06 13:41:38;;;;;;;1.80;1.70;;;15.60;99.90;;;;;;9904560;30;20207;-82
2021/10/06 13:46:41;;;;;;;2.70;2.00;;;15.50;99.90;;;;;;9903441;29;20233;-82
2021/10/06 13:51:45;;;;;;;2.60;1.93;;;15.50;99.90;;;;;;9906680;30;20260;-82
2021/10/06 13:56:47;;;;;;;3.60;2.00;;;15.60;99.90;;;;;;9901204;29;20284;-82
2021/10/06 14:01:52;;;;;;;1.93;1.73;;;15.70;99.90;;;;;;9884329;30;20242;-82
2021/10/06 14:06:58;;;;;;;1.80;1.70;;;15.90;99.90;;;;;;9859819;30;20239;-82
2021/10/06 14:12:00;;;;;;;2.20;1.90;;;16.00;99.90;;;;;;9858189;30;20639;-82
2021/10/06 14:17:02;;;;;;;2.03;1.83;;;16.10;99.90;;;;;;9877317;30;20295;-82
2021/10/06 14:22:05;;;;;;;2.53;2.27;;;16.10;99.90;;;;;;9876274;30;20291;-82
2021/10/06 14:27:09;;;;;;;2.17;2.00;;;16.10;99.90;;;;;;9888667;30;20241;-82
2021/10/06 14:32:11;;;;;;;3.80;2.50;;;16.10;99.90;;;;;;9887493;30;20206;-82
2021/10/06 14:37:14;;;;;;;3.50;2.20;;;16.10;99.90;;;;;;9875730;30;20231;-82
2021/10/06 14:42:16;;;;;;;3.17;2.10;;;16.00;99.90;;;;;;9895346;30;20207;-81
2021/10/06 14:47:18;;;;;;;5.80;1.90;;;16.10;99.90;;;;;;9879881;30;20227;-82
2021/10/06 14:52:22;;;;;;;2.27;2.13;;;16.10;99.90;;;;;;9879860;30;20754;-82
2021/10/06 14:57:27;;;;;;;2.27;1.90;;;16.00;99.90;;;;;;9877049;30;20230;-83
2021/10/06 15:02:30;;;;;;;1.87;1.77;;;16.00;99.90;;;;;;9880332;30;20557;-83
2021/10/06 15:07:33;;;;;;;2.70;1.97;;;15.90;99.90;;;;;;9877533;30;20242;-82
2021/10/06 15:12:37;;;;;;;1.90;1.70;;;15.90;99.90;;;;;;9895884;30;20214;-82
2021/10/06 15:17:40;;;;;;;2.50;1.33;;;15.90;99.90;;;;;;9896589;30;20226;-83
2021/10/06 15:22:50;;;;;;;2.30;2.10;;;15.90;99.90;;;;;;9881415;30;20562;-82
2021/10/06 15:27:52;;;;;;;1.73;1.63;;;15.90;99.90;;;;;;9880162;30;20229;-82
2021/10/06 15:33:00;;;;;;;3.10;2.07;;;15.90;99.90;;;;;;9866038;30;20294;-82
2021/10/06 15:38:03;;;;;;;2.20;1.77;;;15.80;99.90;;;;;;9874854;30;20243;-82
2021/10/06 15:43:05;;;;;;;2.30;2.10;;;15.80;99.90;;;;;;9900631;30;20199;-82
2021/10/06 15:48:08;;;;;;;4.60;1.50;;;15.80;99.90;;;;;;9891767;30;20235;-82
2021/10/06 15:53:12;;;;;;;2.33;1.90;;;15.80;99.90;;;;;;9889513;30;20214;-82
2021/10/06 15:58:14;;;;;;;3.93;1.50;;;15.70;99.90;;;;;;9861705;30;20258;-82
2021/10/06 16:03:17;;;;;;;2.37;1.50;;;15.70;99.90;;;;;;9877276;30;20692;-82
2021/10/06 16:08:20;;;;;;;1.47;1.30;;;15.60;99.90;;;;;;9866451;30;20251;-82
2021/10/06 16:13:22;;;;;;;1.70;1.60;;;15.40;99.90;;;;;;9864504;30;20298;-82
2021/10/06 16:18:24;;;;;;;2.47;1.50;;;15.30;99.90;;;;;;9876814;30;20591;-82
2021/10/06 16:23:28;;;;;;;1.70;1.30;;;15.10;99.90;;;;;;9854987;30;20211;-82
2021/10/06 16:28:30;;;;;;;1.40;1.30;;;15.00;99.90;;;;;;9880718;30;20300;-82
2021/10/06 16:33:32;;;;;;;1.57;1.20;;;14.90;99.90;;;;;;9895189;30;20203;-82
2021/10/06 16:38:35;;;;;;;2.77;1.57;;;14.70;99.90;;;;;;9863050;30;20326;-83
2021/10/06 16:43:37;;;;;;;1.70;1.60;;;14.70;99.90;;;;;;9885782;30;20222;-82
2021/10/06 16:48:40;;;;;;;1.53;1.43;;;14.60;99.90;;;;;;9909674;30;20322;-83
2021/10/06 16:53:43;;;;;;;1.60;1.50;;;14.60;99.90;;;;;;9890897;30;20291;-83
2021/10/06 16:58:45;;;;;;;1.80;1.70;;;14.50;99.90;;;;;;9882613;30;20213;-83
2021/10/06 17:03:49;;;;;;;2.13;1.50;;;14.50;99.90;;;;;;9892873;29;20693;-84
2021/10/06 17:08:53;;;;;;;1.63;1.53;;;14.40;99.90;;;;;;9883785;30;20227;-83
2021/10/06 17:13:55;;;;;;;3.40;1.40;;;14.40;99.90;;;;;;9921546;29;20287;-83
2021/10/06 17:18:57;;;;;;;2.93;1.33;;;14.40;99.90;;;;;;9924713;30;20202;-84
2021/10/06 17:24:01;;;;;;;2.03;1.90;;;14.30;99.90;;;;;;9897536;29;20290;-83
2021/10/06 17:29:03;;;;;;;1.57;1.43;;;14.30;99.90;;;;;;9891212;30;20711;-82
2021/10/06 17:34:05;;;;;;;1.80;1.70;;;14.30;99.90;;;;;;9878295;30;20224;-83
2021/10/06 17:39:09;;;;;;;2.97;1.90;;;14.30;99.90;;;;;;9878758;30;20562;-83
2021/10/06 17:44:11;;;;;;;3.70;2.17;;;14.20;99.90;;;;;;9863033;30;20246;-84
2021/10/06 17:49:14;;;;;;;3.07;1.70;;;14.20;99.90;;;;;;9863274;30;20219;-83
2021/10/06 17:54:17;;;;;;;2.10;2.00;;;14.30;99.90;;;;;;9848350;30;20277;-83
2021/10/06 17:59:19;;;;;;;2.53;1.90;;;14.20;99.90;;;;;;9902085;30;20203;-83
2021/10/06 18:04:23;;;;;;;1.90;1.80;;;14.20;99.90;;;;;;9896180;29;20290;-83
2021/10/06 18:09:26;;;;;;;2.17;2.03;;;14.20;99.90;;;;;;9900799;30;20317;-83
2021/10/06 18:14:28;;;;;;;2.43;2.23;;;14.20;99.90;;;;;;9909711;29;20233;-84
2021/10/06 18:19:31;;;;;;;2.10;2.00;;;14.20;99.90;;;;;;9916593;29;20825;-83
2021/10/06 18:24:34;;;;;;;2.00;1.90;;;14.20;99.90;;;;;;9890902;30;20251;-84
2021/10/06 18:29:37;;;;;;;2.40;2.20;;;14.20;99.90;;;;;;9897893;30;20296;-83
2021/10/06 18:34:39;;;;;;;2.00;1.80;;;14.20;99.90;;;;;;9860692;30;20250;-83
2021/10/06 18:39:42;;;;;;;1.40;1.30;;;14.10;99.90;;;;;;9862557;30;20225;-83
2021/10/06 18:44:45;;;;;;;1.77;1.67;;;14.10;99.90;;;;;;9862103;30;20233;-83
2021/10/06 18:49:47;;;;;;;6.13;1.93;;;14.10;99.90;;;;;;9897481;30;20237;-82
2021/10/06 18:54:50;;;;;;;2.00;1.90;;;14.10;99.90;;;;;;9888285;30;20220;-84
2021/10/06 18:59:52;;;;;;;2.13;2.03;;;14.10;99.90;;;;;;9897582;30;20575;-84
2021/10/06 19:04:55;;;;;;;2.53;2.33;;;14.10;99.90;;;;;;9885787;30;20239;-84
2021/10/06 19:09:58;;;;;;;2.23;2.03;;;14.20;99.90;;;;;;9896110;30;20650;-84
2021/10/06 19:15:00;;;;;;;3.43;2.17;;;14.20;99.90;;;;;;9875663;30;20586;-83
2021/10/06 19:20:04;;;;;;;2.23;2.07;;;14.10;99.90;;;;;;9844963;30;20298;-83
2021/10/06 19:25:09;;;;;;;2.17;2.00;;;14.10;99.90;;;;;;9858905;30;20249;-83
2021/10/06 19:30:11;;;;;;;2.80;1.97;;;14.10;99.90;;;;;;9890658;30;20237;-84
2021/10/06 19:35:18;;;;;;;2.03;1.73;;;14.00;99.90;;;;;;9859656;30;20240;-84
2021/10/06 19:40:22;;;;;;;2.60;2.40;;;13.90;99.90;;;;;;9857154;30;20204;-84
2021/10/06 19:45:24;;;;;;;2.20;2.00;;;13.90;99.90;;;;;;9879455;29;20779;-84
2021/10/06 19:50:26;;;;;;;2.57;2.40;;;13.90;99.90;;;;;;9862238;30;20227;-84
2021/10/06 19:55:30;;;;;;;2.43;2.20;;;13.90;99.90;;;;;;9877804;30;20320;-83
2021/10/06 20:00:34;;;;;;;2.60;2.40;;;14.00;99.90;;;;;;9894766;30;20213;-84
2021/10/06 20:05:39;;;;;;;3.20;2.90;;;14.00;99.90;;;;;;9910053;29;20309;-83
2021/10/06 20:10:42;;;;;;;3.47;2.50;;;14.00;99.90;;;;;;9889895;30;20263;-84
2021/10/06 20:15:44;;;;;;;3.90;2.10;;;14.00;99.90;;;;;;9890041;30;20237;-83
2021/10/06 20:20:49;;;;;;;2.50;2.20;;;14.00;99.90;;;;;;9875104;30;20370;-83
2021/10/06 20:25:52;;;;;;;2.10;2.00;;;14.10;99.90;;;;;;9879612;30;20230;-84
2021/10/06 20:30:54;;;;;;;2.30;2.10;;;14.00;99.90;;;;;;9890348;30;20263;-83
2021/10/06 20:36:01;;;;;;;3.47;2.43;;;14.00;99.90;;;;;;9895287;30;20743;-83
2021/10/06 20:41:08;;;;;;;2.70;2.50;;;14.10;99.90;;;;;;9888680;29;20198;-83
2021/10/06 20:46:10;;;;;;;2.53;2.43;;;14.10;99.90;;;;;;9899754;30;20374;-83
2021/10/06 20:51:12;;;;;;;3.00;2.70;;;14.10;99.90;;;;;;9898433;30;20233;-83
2021/10/06 20:56:16;;;;;;;3.80;3.20;;;14.10;99.90;;;;;;9896669;30;20625;-83
2021/10/06 21:01:18;;;;;;;2.80;2.60;;;14.10;99.90;;;;;;9879703;30;20210;-85
2021/10/06 21:06:20;;;;;;;2.87;2.63;;;14.10;99.90;;;;;;9894678;30;20238;-83
2021/10/06 21:11:25;;;;;;;3.13;2.90;;;14.00;99.90;;;;;;9867648;30;20226;-83
2021/10/06 21:16:27;;;;;;;2.70;2.50;;;14.00;99.90;;;;;;9894577;30;20238;-84
2021/10/06 21:21:30;;;;;;;2.60;2.40;;;14.00;99.90;;;;;;9880055;30;20206;-84
2021/10/06 21:26:34;;;;;;;2.80;2.60;;;14.00;99.90;;;;;;9881980;29;20226;-83
2021/10/06 21:31:40;;;;;;;3.23;2.50;;;14.10;99.90;;;;;;9868998;30;20259;-83
2021/10/06 21:36:42;;;;;;;2.93;2.43;;;14.10;99.90;;;;;;9894637;29;20704;-84
2021/10/06 21:41:45;;;;;;;2.10;2.00;;;14.10;99.90;;;;;;9894494;30;20805;-83
2021/10/06 21:46:50;;;;;;;2.50;2.40;;;14.10;99.90;;;;;;9914271;30;20714;-84
2021/10/06 21:51:54;;;;;;;2.47;2.33;;;14.10;99.90;;;;;;9893082;29;20234;-83
2021/10/06 21:57:04;;;;;;;2.60;2.50;;;14.10;99.90;;;;;;9870234;30;20234;-84
2021/10/06 22:02:06;;;;;;;2.83;2.30;;;14.10;99.90;;;;;;9861530;30;20214;-84
2021/10/06 22:13:11;;;;;;;2.57;2.47;;;14.10;99.90;;;;;;9764890;30;20620;-84
2021/10/06 22:33:17;;;;;;;2.77;2.63;;;14.10;99.90;;;;;;9881594;30;20241;-83
2021/10/06 22:38:50;;;;;;;2.90;2.60;;;14.00;99.90;;;;;;9887934;24;20246;-81
2021/10/06 22:43:54;;;;;;;2.70;2.50;;;14.00;99.90;;;;;;9894413;30;20218;-82
2021/10/06 22:48:56;;;;;;;2.80;2.60;;;14.00;99.90;;;;;;9914322;30;20239;-82
2021/10/06 22:53:59;;;;;;;6.80;2.40;;;13.90;99.90;;;;;;9897531;30;20213;-82
2021/10/06 22:59:02;;;;;;;2.70;2.50;;;13.90;99.90;;;;;;9858024;30;20247;-81
2021/10/06 23:04:04;;;;;;;2.00;1.90;;;13.80;99.90;;;;;;9842590;30;20221;-82
2021/10/06 23:09:07;;;;;;;2.27;2.10;;;13.80;99.90;;;;;;9857804;30;20643;-82
2021/10/06 23:14:10;;;;;;;2.40;1.80;;;13.80;99.90;;;;;;9842921;30;20657;-82
2021/10/06 23:19:12;;;;;;;2.00;1.90;;;13.90;99.90;;;;;;9858900;30;20227;-82
2021/10/06 23:24:14;;;;;;;2.10;1.90;;;13.80;99.90;;;;;;9878710;30;20669;-82
2021/10/06 23:29:18;;;;;;;2.10;1.90;;;13.80;99.90;;;;;;9873752;30;20241;-82
2021/10/06 23:34:20;;;;;;;2.37;1.80;;;13.70;99.90;;;;;;9892513;30;20214;-83
2021/10/06 23:39:22;;;;;;;1.93;1.73;;;13.70;99.90;;;;;;9895284;30;20208;-83
2021/10/06 23:44:27;;;;;;;2.00;1.90;;;13.70;99.90;;;;;;9893514;30;20203;-83
2021/10/06 23:49:30;;;;;;;2.30;2.10;;;13.60;99.90;;;;;;9894164;30;20226;-83
2021/10/06 23:54:32;;;;;;;2.90;2.00;;;13.70;99.90;;;;;;9892700;30;20240;-82
2021/10/06 23:59:35;;;;;;;1.80;1.70;;;13.70;99.90;;;;;;9910058;30;20206;-82
